sensor_id;sensor_type;location;lat;lon;timestamp;pressure;altitude;pressure_sealevel;temperature;humidity
44663;BME280;30381;52.754;18.258;2023-04-24T05:02:48;99609.11;;;14.62;100.00
44663;BME280;30381;52.754;18.258;2023-04-24T05:05:17;99610.16;;;14.56;100.00
44663;BME280;30381;52.754;18.258;2023-04-24T05:07:47;99605.85;;;14.46;100.00
44663;BME280;30381;52.754;18.258;2023-04-24T05:10:16;99605.73;;;14.40;100.00
44663;BME280;30381;52.754;18.258;2023-04-24T05:12:55;99607.61;;;14.32;100.00
44663;BME280;30381;52.754;18.258;2023-04-24T05:15:26;99599.42;;;14.24;100.00
44663;BME280;30381;52.754;18.258;2023-04-24T05:18:42;99601.77;;;14.16;100.00
44663;BME280;30381;52.754;18.258;2023-04-24T05:21:10;99605.33;;;14.13;100.00
44663;BME280;30381;52.754;18.258;2023-04-24T05:23:53;99602.11;;;14.13;100.00
44663;BME280;30381;52.754;18.258;2023-04-24T05:26:20;99597.55;;;14.13;100.00
44663;BME280;30381;52.754;18.258;2023-04-24T05:28:49;99599.30;;;14.17;100.00
44663;BME280;30381;52.754;18.258;2023-04-24T05:31:24;99595.52;;;14.22;100.00
44663;BME280;30381;52.754;18.258;2023-04-24T05:33:56;99595.36;;;14.28;100.00
44663;BME280;30381;52.754;18.258;2023-04-24T05:36:35;99598.54;;;14.32;100.00
44663;BME280;30381;52.754;18.258;2023-04-24T05:39:02;99598.64;;;14.33;100.00
44663;BME280;30381;52.754;18.258;2023-04-24T05:41:35;99596.39;;;14.36;100.00
44663;BME280;30381;52.754;18.258;2023-04-24T05:44:05;99594.68;;;14.41;100.00
44663;BME280;30381;52.754;18.258;2023-04-24T05:46:31;99592.90;;;14.46;100.00
44663;BME280;30381;52.754;18.258;2023-04-24T05:48:57;99587.95;;;14.51;100.00
44663;BME280;30381;52.754;18.258;2023-04-24T05:51:24;99593.41;;;14.55;100.00
44663;BME280;30381;52.754;18.258;2023-04-24T05:53:52;99587.63;;;14.57;100.00
44663;BME280;30381;52.754;18.258;2023-04-24T05:56:20;99585.18;;;14.58;100.00
44663;BME280;30381;52.754;18.258;2023-04-24T05:58:46;99582.58;;;14.61;100.00
44663;BME280;30381;52.754;18.258;2023-04-24T06:01:13;99582.17;;;14.65;100.00
44663;BME280;30381;52.754;18.258;2023-04-24T06:03:48;99583.11;;;14.69;100.00
44663;BME280;30381;52.754;18.258;2023-04-24T06:06:19;99583.27;;;14.75;100.00
44663;BME280;30381;52.754;18.258;2023-04-24T06:08:45;99583.86;;;14.85;100.00
44663;BME280;30381;52.754;18.258;2023-04-24T06:11:12;99582.83;;;14.90;100.00
44663;BME280;30381;52.754;18.258;2023-04-24T06:13:38;99583.13;;;14.98;100.00
44663;BME280;30381;52.754;18.258;2023-04-24T06:16:04;99582.58;;;15.03;100.00
44663;BME280;30381;52.754;18.258;2023-04-24T06:18:31;99580.52;;;15.07;100.00
44663;BME280;30381;52.754;18.258;2023-04-24T06:20:58;99581.83;;;15.11;100.00
44663;BME280;30381;52.754;18.258;2023-04-24T06:23:28;99582.73;;;15.18;100.00
44663;BME280;30381;52.754;18.258;2023-04-24T06:25:56;99579.86;;;15.26;100.00
44663;BME280;30381;52.754;18.258;2023-04-24T06:28:23;99578.36;;;15.36;100.00
44663;BME280;30381;52.754;18.258;2023-04-24T06:30:55;99578.25;;;15.54;100.00
44663;BME280;30381;52.754;18.258;2023-04-24T06:33:21;99574.23;;;15.70;100.00
44663;BME280;30381;52.754;18.258;2023-04-24T06:35:48;99579.29;;;15.85;100.00
44663;BME280;30381;52.754;18.258;2023-04-24T06:38:16;99576.54;;;16.01;100.00
44663;BME280;30381;52.754;18.258;2023-04-24T06:40:43;99573.63;;;16.13;100.00
44663;BME280;30381;52.754;18.258;2023-04-24T06:43:09;99568.86;;;16.24;100.00
44663;BME280;30381;52.754;18.258;2023-04-24T06:45:38;99565.88;;;16.24;100.00
44663;BME280;30381;52.754;18.258;2023-04-24T06:48:04;99564.67;;;16.17;100.00
44663;BME280;30381;52.754;18.258;2023-04-24T06:50:31;99565.43;;;16.08;100.00
44663;BME280;30381;52.754;18.258;2023-04-24T06:52:58;99569.40;;;15.94;100.00
44663;BME280;30381;52.754;18.258;2023-04-24T06:55:24;99569.23;;;15.77;100.00
44663;BME280;30381;52.754;18.258;2023-04-24T06:57:50;99569.64;;;15.54;100.00
44663;BME280;30381;52.754;18.258;2023-04-24T07:00:18;99565.19;;;15.27;100.00
44663;BME280;30381;52.754;18.258;2023-04-24T07:02:45;99560.36;;;15.08;100.00
44663;BME280;30381;52.754;18.258;2023-04-24T07:05:13;99561.06;;;14.97;100.00
44663;BME280;30381;52.754;18.258;2023-04-24T07:07:42;99560.30;;;14.90;100.00
44663;BME280;30381;52.754;18.258;2023-04-24T07:10:09;99556.59;;;14.86;100.00
44663;BME280;30381;52.754;18.258;2023-04-24T07:12:35;99553.95;;;14.83;100.00
44663;BME280;30381;52.754;18.258;2023-04-24T07:15:02;99558.89;;;14.79;100.00
44663;BME280;30381;52.754;18.258;2023-04-24T07:17:38;99560.88;;;14.77;100.00
44663;BME280;30381;52.754;18.258;2023-04-24T07:20:11;99558.59;;;14.76;100.00
44663;BME280;30381;52.754;18.258;2023-04-24T07:22:42;99558.02;;;14.79;100.00
44663;BME280;30381;52.754;18.258;2023-04-24T07:25:09;99555.83;;;14.86;100.00
44663;BME280;30381;52.754;18.258;2023-04-24T07:27:39;99555.59;;;14.92;100.00
44663;BME280;30381;52.754;18.258;2023-04-24T07:30:08;99551.73;;;15.00;100.00
44663;BME280;30381;52.754;18.258;2023-04-24T07:32:37;99551.89;;;15.05;100.00
44663;BME280;30381;52.754;18.258;2023-04-24T07:35:04;99551.21;;;15.08;100.00
44663;BME280;30381;52.754;18.258;2023-04-24T07:37:30;99551.55;;;15.13;100.00
44663;BME280;30381;52.754;18.258;2023-04-24T07:39:59;99546.92;;;15.20;100.00
44663;BME280;30381;52.754;18.258;2023-04-24T07:42:25;99545.73;;;15.32;100.00
44663;BME280;30381;52.754;18.258;2023-04-24T07:44:52;99542.05;;;15.43;100.00
44663;BME280;30381;52.754;18.258;2023-04-24T07:47:19;99540.42;;;15.56;100.00
44663;BME280;30381;52.754;18.258;2023-04-24T07:49:48;99537.35;;;15.69;100.00
44663;BME280;30381;52.754;18.258;2023-04-24T07:52:15;99534.95;;;15.83;100.00
44663;BME280;30381;52.754;18.258;2023-04-24T07:54:41;99536.10;;;15.97;100.00
44663;BME280;30381;52.754;18.258;2023-04-24T07:57:12;99535.80;;;16.09;100.00
44663;BME280;30381;52.754;18.258;2023-04-24T07:59:40;99535.96;;;16.22;100.00
44663;BME280;30381;52.754;18.258;2023-04-24T08:02:08;99533.16;;;16.32;100.00
44663;BME280;30381;52.754;18.258;2023-04-24T08:04:36;99535.20;;;16.46;100.00
44663;BME280;30381;52.754;18.258;2023-04-24T08:07:04;99536.31;;;16.61;100.00
44663;BME280;30381;52.754;18.258;2023-04-24T08:09:30;99537.53;;;16.78;100.00
44663;BME280;30381;52.754;18.258;2023-04-24T08:11:58;99544.09;;;16.95;100.00
44663;BME280;30381;52.754;18.258;2023-04-24T08:14:26;99544.98;;;17.10;100.00
44663;BME280;30381;52.754;18.258;2023-04-24T08:16:54;99549.29;;;17.16;100.00
44663;BME280;30381;52.754;18.258;2023-04-24T08:19:29;99548.25;;;17.13;100.00
44663;BME280;30381;52.754;18.258;2023-04-24T08:21:55;99551.65;;;17.04;100.00
44663;BME280;30381;52.754;18.258;2023-04-24T08:24:24;99551.48;;;16.96;100.00
44663;BME280;30381;52.754;18.258;2023-04-24T08:26:54;99554.13;;;16.85;100.00
44663;BME280;30381;52.754;18.258;2023-04-24T08:29:24;99546.44;;;16.78;100.00
44663;BME280;30381;52.754;18.258;2023-04-24T08:31:52;99547.84;;;16.73;100.00
44663;BME280;30381;52.754;18.258;2023-04-24T08:34:21;99552.50;;;16.72;100.00
44663;BME280;30381;52.754;18.258;2023-04-24T08:36:48;99551.64;;;16.71;100.00
44663;BME280;30381;52.754;18.258;2023-04-24T08:39:15;99546.61;;;16.62;100.00
44663;BME280;30381;52.754;18.258;2023-04-24T08:41:45;99551.76;;;16.51;100.00
44663;BME280;30381;52.754;18.258;2023-04-24T08:44:15;99546.23;;;16.40;100.00
44663;BME280;30381;52.754;18.258;2023-04-24T08:46:43;99542.87;;;16.33;100.00
44663;BME280;30381;52.754;18.258;2023-04-24T08:49:17;99541.65;;;16.31;100.00
44663;BME280;30381;52.754;18.258;2023-04-24T08:51:45;99541.73;;;16.29;100.00
44663;BME280;30381;52.754;18.258;2023-04-24T08:54:13;99542.66;;;16.35;100.00
44663;BME280;30381;52.754;18.258;2023-04-24T08:56:40;99546.38;;;16.45;100.00
44663;BME280;30381;52.754;18.258;2023-04-24T08:59:10;99549.77;;;16.60;100.00
44663;BME280;30381;52.754;18.258;2023-04-24T09:01:38;99547.11;;;16.74;100.00
44663;BME280;30381;52.754;18.258;2023-04-24T09:04:14;99546.38;;;16.90;100.00
44663;BME280;30381;52.754;18.258;2023-04-24T09:06:50;99544.34;;;17.06;100.00
44663;BME280;30381;52.754;18.258;2023-04-24T09:09:19;99547.30;;;17.17;100.00
44663;BME280;30381;52.754;18.258;2023-04-24T09:11:47;99547.81;;;17.23;100.00
44663;BME280;30381;52.754;18.258;2023-04-24T09:14:19;99545.98;;;17.32;100.00
44663;BME280;30381;52.754;18.258;2023-04-24T09:16:47;99547.98;;;17.39;100.00
44663;BME280;30381;52.754;18.258;2023-04-24T09:19:19;99550.84;;;17.35;100.00
44663;BME280;30381;52.754;18.258;2023-04-24T09:21:49;99546.52;;;17.25;100.00
44663;BME280;30381;52.754;18.258;2023-04-24T09:24:39;99544.33;;;17.21;100.00
44663;BME280;30381;52.754;18.258;2023-04-24T09:27:10;99530.36;;;17.19;100.00
44663;BME280;30381;52.754;18.258;2023-04-24T09:29:39;99518.36;;;17.21;100.00
44663;BME280;30381;52.754;18.258;2023-04-24T09:32:24;99515.14;;;17.27;100.00
44663;BME280;30381;52.754;18.258;2023-04-24T09:35:24;99511.57;;;17.32;100.00
44663;BME280;30381;52.754;18.258;2023-04-24T09:37:59;99505.81;;;17.45;100.00
44663;BME280;30381;52.754;18.258;2023-04-24T09:40:26;99507.70;;;17.56;100.00
44663;BME280;30381;52.754;18.258;2023-04-24T09:43:01;99514.30;;;17.70;100.00
44663;BME280;30381;52.754;18.258;2023-04-24T09:45:41;99524.94;;;17.78;100.00
44663;BME280;30381;52.754;18.258;2023-04-24T09:48:29;99527.02;;;17.85;100.00
44663;BME280;30381;52.754;18.258;2023-04-24T09:50:58;99524.46;;;17.88;100.00
44663;BME280;30381;52.754;18.258;2023-04-24T09:53:31;99525.70;;;17.83;100.00
44663;BME280;30381;52.754;18.258;2023-04-24T09:56:08;99526.62;;;17.79;100.00
44663;BME280;30381;52.754;18.258;2023-04-24T09:58:46;99527.21;;;17.74;100.00
44663;BME280;30381;52.754;18.258;2023-04-24T10:01:35;99525.48;;;17.71;100.00
44663;BME280;30381;52.754;18.258;2023-04-24T10:04:25;99524.27;;;17.77;100.00
44663;BME280;30381;52.754;18.258;2023-04-24T10:07:03;99525.83;;;17.75;100.00
44663;BME280;30381;52.754;18.258;2023-04-24T10:09:37;99524.42;;;17.77;100.00
44663;BME280;30381;52.754;18.258;2023-04-24T10:12:11;99524.63;;;17.80;100.00
44663;BME280;30381;52.754;18.258;2023-04-24T10:14:40;99526.83;;;17.81;100.00
44663;BME280;30381;52.754;18.258;2023-04-24T10:17:17;99524.40;;;17.80;100.00
44663;BME280;30381;52.754;18.258;2023-04-24T10:19:47;99529.92;;;17.75;100.00
44663;BME280;30381;52.754;18.258;2023-04-24T10:22:19;99526.99;;;17.77;100.00
44663;BME280;30381;52.754;18.258;2023-04-24T10:24:48;99529.00;;;17.78;100.00
44663;BME280;30381;52.754;18.258;2023-04-24T10:27:20;99527.23;;;17.80;100.00
44663;BME280;30381;52.754;18.258;2023-04-24T10:29:49;99529.98;;;17.85;100.00
44663;BME280;30381;52.754;18.258;2023-04-24T10:32:20;99526.05;;;17.93;100.00
44663;BME280;30381;52.754;18.258;2023-04-24T10:34:46;99524.81;;;18.03;99.97
44663;BME280;30381;52.754;18.258;2023-04-24T10:37:23;99529.59;;;18.16;99.63
44663;BME280;30381;52.754;18.258;2023-04-24T10:39:54;99526.09;;;18.31;99.82
44663;BME280;30381;52.754;18.258;2023-04-24T10:42:30;99527.02;;;18.51;99.53
44663;BME280;30381;52.754;18.258;2023-04-24T10:45:04;99526.16;;;18.69;99.41
44663;BME280;30381;52.754;18.258;2023-04-24T10:47:40;99523.48;;;18.94;99.08
44663;BME280;30381;52.754;18.258;2023-04-24T10:53:16;99528.30;;;19.61;98.82
44663;BME280;30381;52.754;18.258;2023-04-24T10:56:03;99529.05;;;19.93;97.63
44663;BME280;30381;52.754;18.258;2023-04-24T10:58:50;99531.23;;;20.10;96.11
44663;BME280;30381;52.754;18.258;2023-04-24T11:01:25;99528.09;;;20.17;95.38
44663;BME280;30381;52.754;18.258;2023-04-24T11:04:06;99525.60;;;20.23;95.07
44663;BME280;30381;52.754;18.258;2023-04-24T11:06:36;99528.80;;;20.35;94.86
44663;BME280;30381;52.754;18.258;2023-04-24T11:09:10;99525.10;;;20.54;95.10
44663;BME280;30381;52.754;18.258;2023-04-24T11:11:49;99521.48;;;20.92;94.52
44663;BME280;30381;52.754;18.258;2023-04-24T11:14:18;99521.16;;;21.36;94.41
44663;BME280;30381;52.754;18.258;2023-04-24T11:16:55;99520.62;;;21.81;94.56
44663;BME280;30381;52.754;18.258;2023-04-24T11:19:33;99527.95;;;22.15;93.84
44663;BME280;30381;52.754;18.258;2023-04-24T11:22:16;99523.83;;;22.34;91.44
44663;BME280;30381;52.754;18.258;2023-04-24T11:25:02;99527.79;;;22.44;90.17
44663;BME280;30381;52.754;18.258;2023-04-24T11:28:02;99523.53;;;22.55;90.58
44663;BME280;30381;52.754;18.258;2023-04-24T11:30:37;99522.61;;;22.76;90.32
44663;BME280;30381;52.754;18.258;2023-04-24T11:33:23;99519.70;;;22.97;89.64
44663;BME280;30381;52.754;18.258;2023-04-24T11:36:08;99523.69;;;22.96;87.43
44663;BME280;30381;52.754;18.258;2023-04-24T11:38:51;99519.31;;;22.99;87.93
44663;BME280;30381;52.754;18.258;2023-04-24T11:41:42;99515.93;;;23.00;87.31
44663;BME280;30381;52.754;18.258;2023-04-24T11:44:29;99514.06;;;22.93;86.61
44663;BME280;30381;52.754;18.258;2023-04-24T11:47:08;99513.55;;;22.80;85.89
44663;BME280;30381;52.754;18.258;2023-04-24T11:49:43;99512.31;;;22.78;85.89
44663;BME280;30381;52.754;18.258;2023-04-24T11:52:22;99515.09;;;22.84;84.56
44663;BME280;30381;52.754;18.258;2023-04-24T11:54:53;99517.16;;;22.80;83.51
44663;BME280;30381;52.754;18.258;2023-04-24T11:57:24;99510.91;;;22.76;81.98
44663;BME280;30381;52.754;18.258;2023-04-24T11:59:56;99517.55;;;22.72;82.07
44663;BME280;30381;52.754;18.258;2023-04-24T12:03:11;99517.83;;;22.76;81.17
44663;BME280;30381;52.754;18.258;2023-04-24T12:05:41;99517.45;;;22.82;80.71
44663;BME280;30381;52.754;18.258;2023-04-24T12:08:32;99518.23;;;22.86;79.06
44663;BME280;30381;52.754;18.258;2023-04-24T12:11:21;99513.32;;;22.80;77.96
44663;BME280;30381;52.754;18.258;2023-04-24T12:14:10;99510.19;;;22.73;77.57
44663;BME280;30381;52.754;18.258;2023-04-24T12:16:38;99508.63;;;22.58;77.22
44663;BME280;30381;52.754;18.258;2023-04-24T12:19:05;99503.43;;;22.45;76.78
44663;BME280;30381;52.754;18.258;2023-04-24T12:21:40;99505.52;;;22.25;76.26
44663;BME280;30381;52.754;18.258;2023-04-24T12:24:07;99508.87;;;22.08;76.56
44663;BME280;30381;52.754;18.258;2023-04-24T12:26:45;99501.73;;;21.86;76.48
44663;BME280;30381;52.754;18.258;2023-04-24T12:29:27;99502.64;;;21.69;76.52
44663;BME280;30381;52.754;18.258;2023-04-24T12:31:58;99507.16;;;21.46;75.50
44663;BME280;30381;52.754;18.258;2023-04-24T12:34:29;99511.42;;;21.22;75.77
44663;BME280;30381;52.754;18.258;2023-04-24T12:37:11;99504.83;;;21.03;75.95
44663;BME280;30381;52.754;18.258;2023-04-24T12:42:50;99508.54;;;20.63;76.14
44663;BME280;30381;52.754;18.258;2023-04-24T12:45:22;99507.30;;;20.55;76.54
44663;BME280;30381;52.754;18.258;2023-04-24T12:47:56;99502.59;;;20.53;76.70
44663;BME280;30381;52.754;18.258;2023-04-24T12:50:27;99502.64;;;20.58;76.47
44663;BME280;30381;52.754;18.258;2023-04-24T12:52:59;99503.79;;;20.64;76.17
44663;BME280;30381;52.754;18.258;2023-04-24T12:55:34;99499.60;;;20.69;76.12
44663;BME280;30381;52.754;18.258;2023-04-24T12:58:04;99499.59;;;20.77;76.38
44663;BME280;30381;52.754;18.258;2023-04-24T13:00:33;99497.67;;;20.80;75.96
44663;BME280;30381;52.754;18.258;2023-04-24T13:03:04;99494.61;;;20.78;75.93
44663;BME280;30381;52.754;18.258;2023-04-24T13:09:54;99492.27;;;20.76;76.34
44663;BME280;30381;52.754;18.258;2023-04-24T13:12:29;99482.22;;;20.89;76.94
44663;BME280;30381;52.754;18.258;2023-04-24T13:16:39;99478.01;;;21.10;77.59
44663;BME280;30381;52.754;18.258;2023-04-24T13:23:59;99470.94;;;21.58;77.62
44663;BME280;30381;52.754;18.258;2023-04-24T13:27:04;99465.63;;;21.75;77.32
44663;BME280;30381;52.754;18.258;2023-04-24T14:25:55;99405.68;;;22.37;75.53
